Time;durP1;ratioP1;P1;durP2;ratioP2;P2;SDS_P1;SDS_P2;PMS_P1;PMS_P2;Temp;Humidity;BMP_temperature;BMP_pressure;BME280_temperature;BME280_humidity;BME280_pressure;Samples;Min_cycle;Max_cycle;Signal;HPM_P1;HPM_P2
2021/11/18 00:01:15;;;;;;;10.13;8.53;;;9.20;73.50;;;;;;5074765;28;20526;-81
2021/11/18 00:03:42;;;;;;;10.57;7.77;;;9.20;73.50;;;;;;5080518;28;20487;-81
2021/11/18 00:06:08;;;;;;;12.23;7.00;;;9.20;73.60;;;;;;5075915;28;20036;-81
2021/11/18 00:08:33;;;;;;;11.13;8.17;;;9.20;73.50;;;;;;5074152;28;20021;-81
2021/11/18 00:11:05;;;;;;;11.87;7.87;;;9.20;73.30;;;;;;5067012;28;20028;-81
2021/11/18 00:13:38;;;;;;;11.80;8.13;;;9.20;73.40;;;;;;5064727;28;20035;-81
2021/11/18 00:16:04;;;;;;;10.43;7.97;;;9.20;73.40;;;;;;5068349;28;20036;-81
2021/11/18 00:18:32;;;;;;;10.17;7.53;;;9.20;73.30;;;;;;5056505;28;20028;-81
2021/11/18 00:21:00;;;;;;;10.57;8.17;;;9.20;73.30;;;;;;5056148;28;20025;-81
2021/11/18 00:23:30;;;;;;;10.70;7.83;;;9.20;73.20;;;;;;5064060;28;20445;-81
2021/11/18 00:25:57;;;;;;;15.27;8.70;;;9.20;73.30;;;;;;5070286;28;20082;-80
2021/11/18 00:28:23;;;;;;;13.03;8.20;;;9.20;73.20;;;;;;5081604;28;20032;-81
2021/11/18 00:30:51;;;;;;;11.37;8.13;;;9.20;73.10;;;;;;5057281;28;20115;-81
2021/11/18 00:33:17;;;;;;;10.30;7.30;;;9.20;73.10;;;;;;5054581;28;20040;-81
2021/11/18 00:35:43;;;;;;;10.23;7.63;;;9.20;73.10;;;;;;5073956;28;20025;-80
2021/11/18 00:38:09;;;;;;;8.93;7.27;;;9.10;73.10;;;;;;5073710;28;20099;-81
2021/11/18 00:40:39;;;;;;;8.63;7.20;;;9.10;73.10;;;;;;5049122;28;20135;-80
2021/11/18 00:43:07;;;;;;;9.00;6.73;;;9.20;73.00;;;;;;5078396;28;20072;-81
2021/11/18 00:45:33;;;;;;;9.40;7.10;;;9.20;72.80;;;;;;5062187;28;20029;-81
2021/11/18 00:47:59;;;;;;;9.63;7.57;;;9.10;72.70;;;;;;5056919;28;20051;-81
2021/11/18 00:50:30;;;;;;;8.67;7.33;;;9.20;72.80;;;;;;5076775;28;20025;-81
2021/11/18 00:52:56;;;;;;;11.20;7.67;;;9.10;72.80;;;;;;5070840;28;20054;-81
2021/11/18 00:55:23;;;;;;;8.80;7.30;;;9.20;72.90;;;;;;5074673;28;20033;-80
2021/11/18 00:57:48;;;;;;;13.17;8.13;;;9.10;73.50;;;;;;5072390;28;20020;-81
2021/11/18 01:00:23;;;;;;;11.23;7.43;;;9.20;72.90;;;;;;5046856;28;20028;-80
2021/11/18 01:02:49;;;;;;;9.43;7.37;;;9.10;73.00;;;;;;5052342;28;20033;-81
2021/11/18 01:05:17;;;;;;;11.17;7.77;;;9.10;73.00;;;;;;5070387;28;20471;-81
2021/11/18 01:07:42;;;;;;;9.50;7.20;;;9.10;73.00;;;;;;5053861;28;20479;-81
2021/11/18 01:10:11;;;;;;;13.57;7.70;;;9.10;73.10;;;;;;5056072;28;20163;-81
2021/11/18 01:12:37;;;;;;;10.73;7.23;;;9.10;73.10;;;;;;5069357;28;20043;-81
2021/11/18 01:15:06;;;;;;;10.70;7.57;;;9.10;73.00;;;;;;5072718;28;20025;-81
2021/11/18 01:17:32;;;;;;;10.67;7.30;;;9.10;73.00;;;;;;5054663;28;20052;-81
2021/11/18 01:19:58;;;;;;;8.50;6.63;;;9.10;73.10;;;;;;5072192;28;21477;-81
2021/11/18 01:22:24;;;;;;;9.90;7.20;;;9.10;73.10;;;;;;5063363;28;20032;-81
2021/11/18 01:24:50;;;;;;;12.47;7.00;;;9.10;73.10;;;;;;5061719;28;20025;-81
2021/11/18 01:27:16;;;;;;;9.90;7.10;;;9.10;73.10;;;;;;5071038;28;20039;-81
2021/11/18 01:29:42;;;;;;;9.87;7.37;;;9.10;73.00;;;;;;5077147;28;20104;-81
2021/11/18 01:32:09;;;;;;;10.37;7.00;;;9.10;72.90;;;;;;5068075;28;20119;-81
2021/11/18 01:34:35;;;;;;;8.27;6.90;;;9.10;72.80;;;;;;5053538;28;20029;-81
2021/11/18 01:37:00;;;;;;;8.20;6.67;;;9.10;72.80;;;;;;5075564;28;20027;-81
2021/11/18 01:39:26;;;;;;;9.77;6.60;;;9.10;72.70;;;;;;5077593;28;20032;-81
2021/11/18 01:41:52;;;;;;;8.80;6.33;;;9.10;72.70;;;;;;5059662;28;20032;-81
2021/11/18 01:44:25;;;;;;;8.10;6.47;;;9.10;72.70;;;;;;5074757;28;20032;-81
2021/11/18 01:46:51;;;;;;;11.00;6.60;;;9.10;72.80;;;;;;5079502;28;20033;-81
2021/11/18 01:49:18;;;;;;;8.10;6.70;;;9.10;72.80;;;;;;5061118;28;20111;-81
2021/11/18 01:51:47;;;;;;;8.17;6.80;;;9.10;72.70;;;;;;5054438;28;20036;-81
2021/11/18 01:54:16;;;;;;;8.60;6.70;;;9.10;72.60;;;;;;5050513;28;20932;-80
2021/11/18 01:56:42;;;;;;;8.53;6.43;;;9.10;72.60;;;;;;5059593;28;20032;-81
2021/11/18 01:59:18;;;;;;;11.40;6.93;;;9.10;72.60;;;;;;5051322;28;20060;-81
2021/11/18 02:01:48;;;;;;;8.50;6.47;;;9.20;72.60;;;;;;5052265;28;20092;-81
2021/11/18 02:04:18;;;;;;;7.47;6.40;;;9.10;72.50;;;;;;5067957;28;20538;-81
2021/11/18 02:06:51;;;;;;;9.47;6.60;;;9.10;72.50;;;;;;5066319;28;20499;-81
2021/11/18 02:09:23;;;;;;;8.13;6.53;;;9.20;72.50;;;;;;5066506;28;20028;-81
2021/11/18 02:11:54;;;;;;;10.63;6.85;;;9.20;72.50;;;;;;5062966;28;20623;-81
2021/11/18 02:14:23;;;;;;;8.00;7.13;;;9.20;72.50;;;;;;5072417;28;20069;-80
2021/11/18 02:16:49;;;;;;;9.80;7.27;;;9.10;72.50;;;;;;5068672;28;20047;-81
2021/11/18 02:19:17;;;;;;;9.37;7.17;;;9.20;72.60;;;;;;5071595;28;20078;-81
2021/11/18 02:21:51;;;;;;;9.37;7.90;;;9.20;72.50;;;;;;5049765;28;20024;-80
2021/11/18 02:24:25;;;;;;;12.87;9.53;;;9.20;72.50;;;;;;5080375;28;20510;-81
2021/11/18 02:26:51;;;;;;;16.77;10.40;;;9.10;72.50;;;;;;5064550;28;20020;-81
2021/11/18 02:29:19;;;;;;;17.50;9.97;;;9.10;72.40;;;;;;5075048;28;20555;-81
2021/11/18 02:31:50;;;;;;;16.43;10.30;;;9.10;72.50;;;;;;5085839;28;20486;-81
2021/11/18 02:34:20;;;;;;;14.17;8.73;;;9.10;72.40;;;;;;5070052;28;20040;-81
2021/11/18 02:36:46;;;;;;;11.33;7.40;;;9.20;72.40;;;;;;5057151;28;20036;-81
2021/11/18 02:39:12;;;;;;;23.70;13.23;;;9.10;72.50;;;;;;5065518;28;20379;-81
2021/11/18 02:41:40;;;;;;;32.10;15.17;;;9.10;72.40;;;;;;5079399;28;20056;-81
2021/11/18 02:44:06;;;;;;;23.30;11.40;;;9.10;72.40;;;;;;5062302;28;20040;-80
2021/11/18 02:46:34;;;;;;;16.70;9.87;;;9.10;72.50;;;;;;5068472;28;20021;-81
2021/11/18 02:49:00;;;;;;;23.83;12.30;;;9.10;72.50;;;;;;5055951;28;20038;-80
2021/11/18 02:51:26;;;;;;;18.47;11.07;;;9.10;72.60;;;;;;5077819;28;20032;-81
2021/11/18 02:53:53;;;;;;;15.03;9.00;;;9.10;72.70;;;;;;5047551;28;20494;-81
2021/11/18 02:56:19;;;;;;;15.93;9.27;;;9.10;72.80;;;;;;5051440;28;20028;-81
2021/11/18 02:58:46;;;;;;;17.77;11.13;;;9.10;72.80;;;;;;5053376;28;20024;-80
2021/11/18 03:01:15;;;;;;;20.70;10.93;;;9.10;72.90;;;;;;5052536;28;20073;-81
2021/11/18 03:03:41;;;;;;;16.77;11.27;;;9.10;72.90;;;;;;5075097;28;20107;-81
2021/11/18 03:06:08;;;;;;;21.80;13.50;;;9.10;72.90;;;;;;5072375;28;20033;-81
2021/11/18 03:08:34;;;;;;;24.47;15.90;;;9.10;72.90;;;;;;5052566;28;20495;-81
2021/11/18 03:11:00;;;;;;;47.70;25.53;;;9.10;72.80;;;;;;5079093;28;20028;-81
2021/11/18 03:13:29;;;;;;;35.53;18.60;;;9.10;72.90;;;;;;5073465;28;20028;-81
2021/11/18 03:15:57;;;;;;;30.87;15.93;;;9.10;72.90;;;;;;5079355;28;20025;-81
2021/11/18 03:18:23;;;;;;;28.37;14.57;;;9.10;72.80;;;;;;5059600;28;20512;-81
2021/11/18 03:20:50;;;;;;;27.93;16.07;;;9.10;72.70;;;;;;5055989;28;20035;-81
2021/11/18 03:23:16;;;;;;;28.70;16.00;;;9.10;72.60;;;;;;5064514;28;20029;-81
2021/11/18 03:25:42;;;;;;;33.27;16.90;;;9.10;72.60;;;;;;5063184;28;20048;-81
2021/11/18 03:28:09;;;;;;;29.13;14.43;;;9.10;72.70;;;;;;5047468;28;20102;-81
2021/11/18 03:30:39;;;;;;;26.80;13.97;;;9.10;72.70;;;;;;5053891;28;20029;-81
2021/11/18 03:33:12;;;;;;;12.57;8.43;;;9.10;72.60;;;;;;5056978;28;20028;-80
2021/11/18 03:35:38;;;;;;;10.60;7.60;;;9.10;72.50;;;;;;5050317;28;20035;-80
2021/11/18 03:38:04;;;;;;;9.87;7.90;;;9.00;72.70;;;;;;5053126;28;20024;-80
2021/11/18 03:40:31;;;;;;;9.73;7.57;;;9.10;73.10;;;;;;5052282;28;20028;-80
2021/11/18 03:42:59;;;;;;;10.30;7.90;;;9.10;73.10;;;;;;5050579;28;20072;-81
2021/11/18 03:45:28;;;;;;;29.37;17.37;;;9.10;73.10;;;;;;5061728;28;20427;-81
2021/11/18 03:47:54;;;;;;;21.60;13.10;;;9.10;73.10;;;;;;5057506;28;20020;-81
2021/11/18 03:50:20;;;;;;;17.83;11.20;;;9.10;73.10;;;;;;5054113;28;20025;-81
2021/11/18 03:52:47;;;;;;;13.27;9.50;;;9.10;73.10;;;;;;5053785;28;20033;-81
2021/11/18 03:55:16;;;;;;;14.03;9.63;;;9.10;73.10;;;;;;5073854;28;20028;-81
2021/11/18 03:57:42;;;;;;;12.43;8.00;;;9.10;73.20;;;;;;5059508;28;20034;-81
2021/11/18 04:00:13;;;;;;;15.10;10.20;;;9.10;73.20;;;;;;5078044;28;20078;-81
2021/11/18 04:02:38;;;;;;;15.03;11.00;;;9.10;73.10;;;;;;5057344;28;20052;-81
2021/11/18 04:05:05;;;;;;;19.43;13.93;;;9.10;73.10;;;;;;5058284;28;20055;-81
2021/11/18 04:07:37;;;;;;;16.87;11.90;;;9.20;73.10;;;;;;5082042;28;20067;-80
2021/11/18 04:10:09;;;;;;;20.00;12.07;;;9.20;73.10;;;;;;5076289;28;20124;-81
2021/11/18 04:12:37;;;;;;;15.40;11.07;;;9.20;73.10;;;;;;5054641;28;20387;-81
2021/11/18 04:15:05;;;;;;;13.30;10.23;;;9.20;73.00;;;;;;5059620;28;20024;-81
2021/11/18 04:17:30;;;;;;;12.63;9.87;;;9.20;72.90;;;;;;5058205;28;20067;-81
2021/11/18 04:19:56;;;;;;;12.87;10.53;;;9.20;72.90;;;;;;5071405;28;20452;-81
2021/11/18 04:22:22;;;;;;;10.77;8.33;;;9.10;72.90;;;;;;5074123;28;20115;-81
2021/11/18 04:24:48;;;;;;;11.90;9.37;;;9.10;72.80;;;;;;5057967;28;20024;-81
2021/11/18 04:27:15;;;;;;;10.27;8.40;;;9.10;72.80;;;;;;5056816;28;20028;-81
2021/11/18 04:29:41;;;;;;;11.13;9.00;;;9.10;72.80;;;;;;5083323;28;20072;-81
2021/11/18 04:32:10;;;;;;;9.13;7.73;;;9.10;72.70;;;;;;5072066;28;20031;-81
2021/11/18 04:34:36;;;;;;;10.10;8.70;;;9.10;72.70;;;;;;5057012;28;20078;-81
2021/11/18 04:37:03;;;;;;;17.07;10.63;;;9.10;72.70;;;;;;5076911;28;20028;-81
2021/11/18 04:39:29;;;;;;;11.27;9.47;;;9.10;72.70;;;;;;5071717;28;20036;-81
2021/11/18 04:41:55;;;;;;;16.30;12.07;;;9.10;72.80;;;;;;5057143;28;20029;-81
2021/11/18 04:44:22;;;;;;;15.33;11.33;;;9.10;72.80;;;;;;5063729;28;20046;-81
2021/11/18 04:46:48;;;;;;;15.30;9.90;;;9.10;72.70;;;;;;5063605;28;20029;-81
2021/11/18 04:49:15;;;;;;;12.27;9.53;;;9.10;72.70;;;;;;5070804;28;20047;-80
2021/11/18 04:51:41;;;;;;;10.80;8.53;;;9.10;72.70;;;;;;5058567;28;20494;-81
2021/11/18 04:54:07;;;;;;;10.87;8.73;;;9.10;72.70;;;;;;5057249;28;20031;-81
2021/11/18 04:56:34;;;;;;;13.73;9.53;;;9.10;72.70;;;;;;5075462;28;20051;-81
2021/11/18 04:59:00;;;;;;;15.27;9.50;;;9.10;72.80;;;;;;5081125;28;20032;-81
2021/11/18 05:01:27;;;;;;;12.37;9.03;;;9.10;72.80;;;;;;5073153;28;20290;-81
2021/11/18 05:03:53;;;;;;;15.83;10.70;;;9.10;72.90;;;;;;5075372;28;20103;-81
2021/11/18 05:06:20;;;;;;;13.70;10.53;;;9.10;72.80;;;;;;5073832;28;20099;-81
2021/11/18 05:08:46;;;;;;;12.20;8.87;;;9.10;72.70;;;;;;5081444;28;20070;-81
2021/11/18 05:11:12;;;;;;;11.20;8.73;;;9.10;72.50;;;;;;5050862;28;20531;-81
2021/11/18 05:13:39;;;;;;;12.17;9.37;;;9.10;72.70;;;;;;5070368;28;20103;-81
2021/11/18 05:16:08;;;;;;;11.23;8.63;;;9.10;72.30;;;;;;5070779;28;20035;-81
2021/11/18 05:18:34;;;;;;;9.50;8.30;;;9.10;72.20;;;;;;5059276;28;20044;-81
2021/11/18 05:21:01;;;;;;;12.83;8.17;;;9.10;72.20;;;;;;5068696;28;20082;-81
2021/11/18 05:23:27;;;;;;;13.33;9.07;;;9.10;72.30;;;;;;5042980;28;20044;-81
2021/11/18 05:25:54;;;;;;;11.67;9.63;;;9.10;72.30;;;;;;5059888;28;20024;-81
2021/11/18 05:28:20;;;;;;;11.27;9.03;;;9.10;72.20;;;;;;5087754;28;20032;-81
2021/11/18 05:30:46;;;;;;;12.53;8.73;;;9.10;72.40;;;;;;5074879;28;20123;-81
2021/11/18 05:33:15;;;;;;;9.00;7.13;;;9.10;72.50;;;;;;5075111;28;20412;-81
2021/11/18 05:35:42;;;;;;;11.03;8.33;;;9.10;73.00;;;;;;5079210;28;20029;-81
2021/11/18 05:38:09;;;;;;;11.43;8.83;;;9.20;73.00;;;;;;5081187;28;20035;-81
2021/11/18 05:40:36;;;;;;;12.33;8.87;;;9.20;73.00;;;;;;5054548;28;20605;-81
2021/11/18 05:43:03;;;;;;;14.17;9.17;;;9.20;73.00;;;;;;5080963;28;20117;-81
2021/11/18 05:45:31;;;;;;;11.93;8.27;;;9.10;72.90;;;;;;5072477;28;20348;-81
2021/11/18 05:47:57;;;;;;;14.10;8.63;;;9.10;72.90;;;;;;5070356;28;20060;-81
2021/11/18 05:50:24;;;;;;;12.73;8.70;;;9.20;72.90;;;;;;5059561;28;20055;-81
2021/11/18 05:52:50;;;;;;;12.33;9.90;;;9.20;72.80;;;;;;5058440;28;20033;-81
2021/11/18 05:55:18;;;;;;;13.40;10.33;;;9.10;72.80;;;;;;5079142;28;20033;-81
2021/11/18 05:57:46;;;;;;;14.17;10.10;;;9.10;73.00;;;;;;5077229;28;20754;-81
2021/11/18 06:00:15;;;;;;;14.50;10.20;;;9.10;73.00;;;;;;5067462;28;20036;-81
2021/11/18 06:02:41;;;;;;;11.10;9.60;;;9.10;73.00;;;;;;5064442;28;20040;-81
2021/11/18 06:05:07;;;;;;;13.53;10.80;;;9.10;73.00;;;;;;5062011;28;20025;-81
2021/11/18 06:07:33;;;;;;;11.10;8.87;;;9.10;73.00;;;;;;5068902;28;20484;-80
2021/11/18 06:09:59;;;;;;;15.90;9.87;;;9.10;73.00;;;;;;5066629;28;20028;-81
2021/11/18 06:12:25;;;;;;;11.13;9.43;;;9.10;73.00;;;;;;5089076;28;20032;-81
2021/11/18 06:14:53;;;;;;;12.17;9.53;;;9.10;73.10;;;;;;5060721;28;20058;-81
2021/11/18 06:17:19;;;;;;;12.73;9.47;;;9.10;73.00;;;;;;5051031;28;20032;-81
2021/11/18 06:19:45;;;;;;;12.70;9.23;;;9.10;73.10;;;;;;5048837;28;20047;-81
2021/11/18 06:22:11;;;;;;;11.80;8.73;;;9.10;73.10;;;;;;5052518;28;20372;-81
2021/11/18 06:24:37;;;;;;;10.00;8.77;;;9.10;73.00;;;;;;5057187;28;20032;-81
2021/11/18 06:27:04;;;;;;;10.83;8.40;;;9.00;72.80;;;;;;5073890;28;20024;-81
2021/11/18 06:29:30;;;;;;;10.93;8.50;;;9.10;72.90;;;;;;5067807;28;20028;-81
2021/11/18 06:31:59;;;;;;;13.17;7.83;;;9.10;72.70;;;;;;5076600;28;20051;-81
2021/11/18 06:34:26;;;;;;;12.03;8.20;;;9.10;72.60;;;;;;5065372;28;20526;-81
2021/11/18 06:36:52;;;;;;;12.63;9.23;;;9.00;72.40;;;;;;5068854;28;20042;-81
2021/11/18 06:39:19;;;;;;;11.03;8.37;;;9.00;72.70;;;;;;5084456;28;20028;-81
2021/11/18 06:41:45;;;;;;;12.30;10.40;;;9.00;72.80;;;;;;5084997;28;20460;-81
2021/11/18 06:44:12;;;;;;;14.17;10.10;;;9.00;72.80;;;;;;5054454;28;20446;-81
2021/11/18 06:46:38;;;;;;;15.53;9.77;;;9.00;72.80;;;;;;5076596;28;20042;-81
2021/11/18 06:49:07;;;;;;;14.07;10.53;;;9.00;72.70;;;;;;5072901;28;20099;-80
2021/11/18 06:51:34;;;;;;;14.47;11.57;;;9.00;73.30;;;;;;5080492;28;20017;-81
2021/11/18 06:54:00;;;;;;;16.13;10.83;;;9.10;72.90;;;;;;5070473;28;20483;-81
2021/11/18 06:56:27;;;;;;;15.67;9.73;;;9.10;72.90;;;;;;5069281;28;20032;-81
2021/11/18 06:58:53;;;;;;;13.93;9.53;;;9.10;72.90;;;;;;5049409;28;20024;-81
2021/11/18 07:01:20;;;;;;;11.30;9.07;;;9.10;72.80;;;;;;5067006;28;20539;-81
2021/11/18 07:03:46;;;;;;;11.23;9.13;;;9.10;72.70;;;;;;5055262;28;20407;-81
2021/11/18 07:06:15;;;;;;;11.77;8.70;;;9.10;72.60;;;;;;5052364;28;20021;-81
2021/11/18 07:08:41;;;;;;;12.13;9.00;;;9.10;72.60;;;;;;5075242;28;20024;-81
2021/11/18 07:11:08;;;;;;;12.67;10.57;;;9.10;72.50;;;;;;5055535;28;20112;-81
2021/11/18 07:13:35;;;;;;;19.43;10.27;;;9.20;72.60;;;;;;5081658;28;20021;-81
2021/11/18 07:16:03;;;;;;;12.70;10.13;;;9.20;72.50;;;;;;5058515;28;20043;-81
2021/11/18 07:18:30;;;;;;;16.53;10.00;;;9.10;72.60;;;;;;5065723;28;20031;-81
2021/11/18 07:20:57;;;;;;;14.30;10.33;;;9.20;72.70;;;;;;5084464;28;20020;-81
2021/11/18 07:23:24;;;;;;;14.60;10.13;;;9.20;72.80;;;;;;5060647;28;20111;-81
2021/11/18 07:25:53;;;;;;;14.40;10.10;;;9.20;72.90;;;;;;5054307;28;20075;-82
2021/11/18 07:28:20;;;;;;;13.40;10.13;;;9.20;72.90;;;;;;5083040;28;20024;-82
2021/11/18 07:30:47;;;;;;;11.60;9.50;;;9.30;72.80;;;;;;5058632;28;20020;-82
2021/11/18 07:33:14;;;;;;;16.47;10.93;;;9.20;72.80;;;;;;5058059;28;20035;-82
2021/11/18 07:35:40;;;;;;;14.00;10.40;;;9.20;72.70;;;;;;5065482;28;20541;-82
2021/11/18 07:38:06;;;;;;;18.90;12.67;;;9.20;73.10;;;;;;5052984;28;20033;-82
2021/11/18 07:40:33;;;;;;;14.80;12.03;;;9.20;73.00;;;;;;5072963;28;20039;-82
2021/11/18 07:42:59;;;;;;;14.43;10.90;;;9.20;73.10;;;;;;5071794;28;20142;-82
2021/11/18 07:45:33;;;;;;;16.60;12.53;;;9.20;73.00;;;;;;5064363;28;20052;-82
2021/11/18 07:47:59;;;;;;;15.17;11.50;;;9.20;73.00;;;;;;5070874;28;20013;-82
2021/11/18 07:50:25;;;;;;;14.03;12.03;;;9.20;73.00;;;;;;5061843;28;20050;-82
2021/11/18 07:52:51;;;;;;;20.93;10.47;;;9.20;73.10;;;;;;5061193;28;20020;-82
2021/11/18 07:55:20;;;;;;;13.87;10.63;;;9.30;73.00;;;;;;5073845;28;20029;-81
2021/11/18 07:57:46;;;;;;;17.63;12.47;;;9.30;73.00;;;;;;5076085;28;20032;-81
2021/11/18 08:00:14;;;;;;;16.33;11.43;;;9.30;73.00;;;;;;5092950;28;20379;-81
2021/11/18 08:02:40;;;;;;;16.23;10.93;;;9.40;73.00;;;;;;5084176;28;20036;-82
2021/11/18 08:05:08;;;;;;;13.87;10.50;;;9.40;72.90;;;;;;5061165;28;20025;-82
2021/11/18 08:07:33;;;;;;;13.43;10.87;;;9.40;72.90;;;;;;5075685;28;20107;-81
2021/11/18 08:09:59;;;;;;;14.83;10.90;;;9.40;72.90;;;;;;5060675;28;20109;-81
2021/11/18 08:12:25;;;;;;;16.17;11.87;;;9.40;72.80;;;;;;5055836;28;20053;-81
2021/11/18 08:14:50;;;;;;;11.57;9.80;;;9.40;72.70;;;;;;5074363;28;20487;-81
2021/11/18 08:17:16;;;;;;;15.27;11.07;;;9.40;72.80;;;;;;5067746;28;20032;-81
2021/11/18 08:19:42;;;;;;;16.10;11.00;;;9.40;73.30;;;;;;5066463;28;20396;-81
2021/11/18 08:22:08;;;;;;;15.67;11.40;;;9.40;72.70;;;;;;5058765;28;20077;-81
2021/11/18 08:24:36;;;;;;;15.43;10.70;;;9.40;72.70;;;;;;5057286;28;20020;-81
2021/11/18 08:27:02;;;;;;;13.00;10.37;;;9.40;72.70;;;;;;5071405;28;20086;-82
2021/11/18 08:29:29;;;;;;;18.03;10.57;;;9.40;72.70;;;;;;5061816;28;20031;-82
2021/11/18 08:31:56;;;;;;;13.77;10.83;;;9.40;72.60;;;;;;5053486;28;20028;-82
2021/11/18 08:34:24;;;;;;;13.33;10.83;;;9.40;72.70;;;;;;5071466;28;20498;-81
2021/11/18 08:36:50;;;;;;;14.70;10.97;;;9.40;72.70;;;;;;5057222;28;20051;-82
2021/11/18 08:39:19;;;;;;;21.17;9.77;;;9.40;72.50;;;;;;5075092;28;20391;-82
2021/11/18 08:41:48;;;;;;;12.23;9.57;;;9.50;72.60;;;;;;5074019;28;20027;-81
2021/11/18 08:44:16;;;;;;;11.67;7.80;;;9.50;72.50;;;;;;5063973;28;20449;-82
2021/11/18 08:46:43;;;;;;;13.17;9.77;;;9.50;72.50;;;;;;5082978;28;20020;-82
2021/11/18 08:49:09;;;;;;;16.73;10.43;;;9.60;72.30;;;;;;5057761;28;20501;-82
2021/11/18 08:51:35;;;;;;;15.80;10.60;;;9.60;72.20;;;;;;5060100;28;20076;-82
2021/11/18 08:54:04;;;;;;;14.60;10.50;;;9.60;72.20;;;;;;5060669;28;20020;-82
2021/11/18 08:56:30;;;;;;;12.73;10.20;;;9.60;72.10;;;;;;5072375;28;20031;-82
2021/11/18 08:58:58;;;;;;;11.83;9.53;;;9.70;72.00;;;;;;5051905;28;20036;-82
2021/11/18 09:01:31;;;;;;;14.13;11.33;;;9.70;72.00;;;;;;5050786;28;20127;-80
2021/11/18 09:03:59;;;;;;;13.80;10.83;;;9.70;72.00;;;;;;5063521;28;20111;-81
2021/11/18 09:06:26;;;;;;;16.30;11.03;;;9.70;72.20;;;;;;5065332;28;20025;-81
2021/11/18 09:08:53;;;;;;;14.37;11.17;;;9.70;72.00;;;;;;5078508;28;20406;-82
2021/11/18 09:11:20;;;;;;;15.53;10.83;;;9.70;71.80;;;;;;5060865;28;20060;-81
2021/11/18 09:13:48;;;;;;;17.93;11.07;;;9.80;71.80;;;;;;5064348;28;20477;-82
2021/11/18 09:16:15;;;;;;;15.03;10.43;;;9.80;71.90;;;;;;5064544;28;20024;-82
2021/11/18 09:18:42;;;;;;;15.33;10.63;;;9.80;71.80;;;;;;5079107;28;20415;-85
2021/11/18 09:21:14;;;;;;;14.00;10.50;;;9.80;71.70;;;;;;5062970;28;20077;-84
2021/11/18 09:23:47;;;;;;;15.65;10.60;;;9.80;71.60;;;;;;5064980;28;20062;-85
2021/11/18 09:26:14;;;;;;;15.40;9.10;;;9.90;71.40;;;;;;5077103;28;20028;-85
2021/11/18 09:28:41;;;;;;;12.90;9.83;;;9.90;71.20;;;;;;5084088;28;20024;-85
2021/11/18 09:31:09;;;;;;;13.93;10.00;;;9.90;71.00;;;;;;5086178;28;20028;-86
2021/11/18 09:33:35;;;;;;;11.43;9.60;;;10.00;70.80;;;;;;5074502;28;20028;-82
2021/11/18 09:36:05;;;;;;;14.00;10.17;;;10.00;70.70;;;;;;5078942;28;20027;-82
2021/11/18 09:38:33;;;;;;;14.40;10.80;;;10.10;70.60;;;;;;5054792;28;20383;-83
2021/11/18 09:41:09;;;;;;;14.07;10.13;;;10.10;70.50;;;;;;5072193;28;20031;-82
2021/11/18 09:43:34;;;;;;;20.20;10.33;;;10.10;70.40;;;;;;5074004;28;20419;-82
2021/11/18 09:46:34;;;;;;;12.37;9.47;;;10.10;70.40;;;;;;5083354;28;20028;-82
2021/11/18 09:49:13;;;;;;;18.03;10.03;;;10.10;70.20;;;;;;5080971;28;20099;-82
2021/11/18 09:51:51;;;;;;;14.73;10.23;;;10.20;70.20;;;;;;5061486;28;20028;-82
2021/11/18 09:54:41;;;;;;;16.90;10.47;;;10.20;70.00;;;;;;5071935;28;20036;-82
2021/11/18 09:57:25;;;;;;;14.17;8.77;;;10.20;70.00;;;;;;5056321;28;20111;-82
2021/11/18 10:00:10;;;;;;;13.63;9.10;;;10.20;70.00;;;;;;5049744;28;20028;-82
2021/11/18 10:02:54;;;;;;;13.37;9.30;;;10.20;69.80;;;;;;5093279;28;20032;-82
2021/11/18 10:05:26;;;;;;;14.93;10.03;;;10.30;69.60;;;;;;5082594;28;20035;-82
2021/11/18 10:08:00;;;;;;;12.43;9.50;;;10.30;69.50;;;;;;5055902;28;20021;-83
2021/11/18 10:10:53;;;;;;;13.80;9.27;;;10.40;69.40;;;;;;5080076;28;20176;-83
2021/11/18 10:13:40;;;;;;;19.30;9.70;;;10.40;69.30;;;;;;5082540;28;20368;-83
2021/11/18 10:16:20;;;;;;;13.10;9.90;;;10.40;69.00;;;;;;5046821;28;20032;-83
2021/11/18 10:18:53;;;;;;;16.43;10.00;;;10.50;69.00;;;;;;5089837;28;20491;-83
2021/11/18 10:21:24;;;;;;;13.20;9.90;;;10.50;69.00;;;;;;5066085;28;20029;-83
2021/11/18 10:23:55;;;;;;;15.23;9.10;;;10.50;68.80;;;;;;5077684;28;20064;-83
2021/11/18 10:26:31;;;;;;;14.00;9.73;;;10.60;68.60;;;;;;5072341;28;20021;-83
2021/11/18 10:29:00;;;;;;;15.13;10.63;;;10.70;68.50;;;;;;5042546;28;20491;-83
2021/11/18 10:31:39;;;;;;;13.83;10.67;;;10.70;68.20;;;;;;5076981;28;20036;-83
2021/11/18 10:34:18;;;;;;;16.87;10.53;;;10.80;68.00;;;;;;5066569;28;20025;-83
2021/11/18 10:37:02;;;;;;;17.80;12.37;;;10.90;67.50;;;;;;5065186;28;20491;-83
2021/11/18 10:39:44;;;;;;;16.10;11.27;;;11.00;67.50;;;;;;5051078;28;20532;-83
2021/11/18 10:42:30;;;;;;;13.13;10.50;;;11.10;67.20;;;;;;5064640;28;20071;-83
2021/11/18 10:45:02;;;;;;;13.00;10.00;;;11.20;67.00;;;;;;5035033;28;20036;-83
2021/11/18 10:47:50;;;;;;;12.93;9.07;;;11.30;67.00;;;;;;5054636;28;20027;-83
2021/11/18 10:50:39;;;;;;;13.30;8.63;;;11.40;66.40;;;;;;5064925;28;20745;-83
2021/11/18 10:53:28;;;;;;;12.63;9.00;;;11.40;65.70;;;;;;5036331;28;20035;-83
2021/11/18 10:55:59;;;;;;;12.80;9.20;;;11.40;65.60;;;;;;5062662;28;20036;-83
2021/11/18 10:58:25;;;;;;;14.57;10.40;;;11.50;65.60;;;;;;5079637;28;20099;-82
2021/11/18 11:01:01;;;;;;;15.10;9.60;;;11.60;65.70;;;;;;5068148;28;20487;-82
2021/11/18 11:03:39;;;;;;;18.23;8.83;;;11.70;65.20;;;;;;5057713;28;20036;-83
2021/11/18 11:06:20;;;;;;;10.00;7.83;;;11.60;65.00;;;;;;5072775;28;20024;-82
2021/11/18 11:09:09;;;;;;;11.03;7.93;;;11.70;65.00;;;;;;5081657;28;20382;-82
2021/11/18 11:12:12;;;;;;;13.07;8.10;;;11.60;64.50;;;;;;5081316;28;20025;-82
2021/11/18 11:15:01;;;;;;;11.23;8.13;;;11.60;64.20;;;;;;5101779;28;20024;-83
2021/11/18 11:17:46;;;;;;;11.03;9.07;;;11.60;64.50;;;;;;5069415;28;20044;-82
2021/11/18 11:20:18;;;;;;;11.17;8.90;;;11.60;64.40;;;;;;5100886;28;20050;-83
2021/11/18 11:23:15;;;;;;;12.18;8.98;;;11.50;64.30;;;;;;5081933;28;20111;-82
2021/11/18 11:26:11;;;;;;;11.70;8.20;;;11.60;64.20;;;;;;5090263;28;20060;-83
2021/11/18 11:29:09;;;;;;;9.67;8.23;;;11.60;64.20;;;;;;5068964;28;20521;-82
2021/11/18 11:32:02;;;;;;;10.47;8.27;;;11.60;64.10;;;;;;5071054;28;20485;-82
2021/11/18 11:34:48;;;;;;;10.90;8.07;;;11.50;64.20;;;;;;5074898;28;20144;-82
2021/11/18 11:37:52;;;;;;;11.30;8.03;;;11.50;64.40;;;;;;5060662;28;20063;-82
2021/11/18 11:40:39;;;;;;;10.90;9.10;;;11.60;64.20;;;;;;5086466;28;20169;-82
2021/11/18 11:43:07;;;;;;;12.70;8.27;;;11.60;64.10;;;;;;5079294;28;20071;-82
2021/11/18 11:45:52;;;;;;;9.83;8.47;;;11.70;64.00;;;;;;5088788;28;20079;-82
2021/11/18 11:48:48;;;;;;;10.53;8.17;;;11.80;63.60;;;;;;5067746;28;20035;-82
2021/11/18 11:51:46;;;;;;;11.77;7.90;;;11.80;63.40;;;;;;5049876;28;20028;-82
2021/11/18 11:54:26;;;;;;;11.07;8.10;;;11.90;63.40;;;;;;5069459;28;20021;-82
2021/11/18 11:56:56;;;;;;;6.40;5.40;;;12.00;63.30;;;;;;5058722;28;20090;-81
2021/11/18 11:59:44;;;;;;;7.97;6.80;;;12.10;62.80;;;;;;5067889;28;20099;-82
2021/11/18 12:02:14;;;;;;;7.20;6.27;;;12.00;62.60;;;;;;5062115;28;20043;-81
2021/11/18 12:05:09;;;;;;;8.70;7.30;;;12.10;62.50;;;;;;5062118;28;20031;-82
2021/11/18 12:07:58;;;;;;;11.80;7.37;;;12.10;62.20;;;;;;5055563;28;20044;-81
2021/11/18 12:10:39;;;;;;;8.63;7.37;;;12.20;62.40;;;;;;5083900;28;20085;-82
2021/11/18 12:13:27;;;;;;;10.37;7.30;;;12.30;62.00;;;;;;5076480;28;20478;-82
2021/11/18 12:16:24;;;;;;;10.10;7.07;;;12.20;62.00;;;;;;5087473;28;20444;-82
2021/11/18 12:18:58;;;;;;;11.67;7.50;;;12.20;62.00;;;;;;5068432;28;20068;-82
2021/11/18 12:21:25;;;;;;;11.87;8.43;;;12.20;62.20;;;;;;5056368;28;20024;-82
2021/11/18 12:23:58;;;;;;;9.53;7.97;;;12.20;62.00;;;;;;5067636;28;20025;-82
2021/11/18 12:26:24;;;;;;;9.80;7.27;;;12.20;61.80;;;;;;5070754;28;20031;-82
2021/11/18 12:29:16;;;;;;;10.47;7.90;;;12.30;61.80;;;;;;5065644;28;20017;-82
2021/11/18 12:32:01;;;;;;;10.30;7.90;;;12.30;61.70;;;;;;5067249;28;20158;-82
2021/11/18 12:34:49;;;;;;;5.97;4.63;;;12.40;61.70;;;;;;5076488;28;20036;-82
2021/11/18 12:37:21;;;;;;;6.23;4.80;;;12.50;61.50;;;;;;5068452;28;20028;-82
2021/11/18 12:39:50;;;;;;;6.20;5.18;;;12.40;61.20;;;;;;5073057;28;20100;-82
2021/11/18 12:42:39;;;;;;;6.63;5.30;;;12.40;61.00;;;;;;5076228;28;20048;-82
2021/11/18 12:45:33;;;;;;;5.93;5.33;;;12.40;61.00;;;;;;5080943;28;20081;-83
2021/11/18 12:48:04;;;;;;;5.50;4.73;;;12.50;60.50;;;;;;5062738;28;20025;-82
2021/11/18 12:50:49;;;;;;;6.03;4.93;;;12.40;61.00;;;;;;5082940;28;20024;-82
2021/11/18 12:53:36;;;;;;;7.23;5.17;;;12.50;60.80;;;;;;5063833;28;20024;-82
2021/11/18 12:56:28;;;;;;;6.13;5.10;;;12.50;60.60;;;;;;5062839;28;20032;-81
2021/11/18 12:59:08;;;;;;;7.07;5.57;;;12.50;60.10;;;;;;5082872;28;20360;-81
2021/11/18 13:01:40;;;;;;;7.67;5.83;;;12.40;60.40;;;;;;5074928;28;20333;-81